Time;durP1;ratioP1;P1;durP2;ratioP2;P2;SDS_P1;SDS_P2;PMS_P1;PMS_P2;Temp;Humidity;BMP_temperature;BMP_pressure;BME280_temperature;BME280_humidity;BME280_pressure;Samples;Min_cycle;Max_cycle;Signal;HPM_P1;HPM_P2
2022/12/27 00:00:35;;;;;;;97.13;47.17;;;27.20;99.90;;;;;;5076239;28;20029;-68
2022/12/27 00:03:02;;;;;;;322.27;191.48;;;27.10;99.90;;;;;;5076420;28;20020;-67
2022/12/27 00:05:28;;;;;;;139.85;78.57;;;27.20;99.90;;;;;;5076288;28;20025;-67
2022/12/27 00:07:55;;;;;;;99.55;49.65;;;27.20;99.90;;;;;;5076178;28;20033;-68
2022/12/27 00:10:22;;;;;;;114.82;54.00;;;27.20;99.90;;;;;;5076212;28;20370;-69
2022/12/27 00:12:48;;;;;;;79.95;37.33;;;27.20;99.90;;;;;;5076090;28;20032;-68
2022/12/27 00:15:14;;;;;;;87.30;36.50;;;27.20;99.90;;;;;;5076185;28;20538;-68
2022/12/27 00:17:41;;;;;;;74.43;35.17;;;27.20;99.90;;;;;;5075907;28;20115;-68
2022/12/27 00:20:08;;;;;;;78.25;36.15;;;27.20;99.90;;;;;;5076211;28;20025;-68
2022/12/27 00:22:35;;;;;;;79.07;34.90;;;27.20;99.90;;;;;;5075794;28;20413;-68
2022/12/27 00:25:01;;;;;;;72.90;34.63;;;27.20;99.90;;;;;;5075828;28;20031;-68
2022/12/27 00:27:28;;;;;;;124.15;50.83;;;27.30;99.90;;;;;;5074899;28;20116;-68
2022/12/27 00:29:54;;;;;;;120.97;60.70;;;27.30;99.90;;;;;;5075700;28;20057;-67
2022/12/27 00:32:21;;;;;;;186.32;107.38;;;27.30;99.90;;;;;;5075897;28;20108;-68
2022/12/27 00:34:47;;;;;;;100.00;52.08;;;27.30;99.90;;;;;;5082574;28;20030;-67
2022/12/27 00:37:14;;;;;;;145.18;82.82;;;27.40;99.90;;;;;;5080281;28;20024;-66
2022/12/27 00:39:41;;;;;;;131.60;71.60;;;27.50;99.90;;;;;;5075660;28;20666;-66
2022/12/27 00:42:10;;;;;;;105.72;54.72;;;27.50;99.90;;;;;;5073854;28;20029;-67
2022/12/27 00:44:37;;;;;;;72.45;34.72;;;27.50;99.90;;;;;;5075422;28;20377;-67
2022/12/27 00:47:04;;;;;;;136.73;64.75;;;27.50;99.90;;;;;;5075553;28;20024;-66
2022/12/27 00:49:30;;;;;;;139.27;70.43;;;27.50;99.90;;;;;;5075313;28;20017;-66
2022/12/27 00:51:57;;;;;;;66.47;28.05;;;27.50;99.90;;;;;;5075308;28;20032;-66
2022/12/27 00:54:23;;;;;;;71.50;23.90;;;27.50;99.90;;;;;;5075442;28;20052;-66
2022/12/27 00:56:50;;;;;;;65.18;25.13;;;27.50;99.90;;;;;;5075206;28;20381;-69
2022/12/27 00:59:17;;;;;;;66.88;25.17;;;27.50;99.90;;;;;;5075254;28;20069;-69
2022/12/27 01:01:43;;;;;;;233.93;133.10;;;27.50;99.90;;;;;;5075012;28;20016;-67
2022/12/27 01:04:12;;;;;;;410.52;224.80;;;27.50;99.90;;;;;;5075114;28;20106;-68
2022/12/27 01:06:39;;;;;;;92.45;45.85;;;27.60;99.90;;;;;;5074980;28;20086;-68
2022/12/27 01:09:06;;;;;;;64.18;29.45;;;27.60;99.90;;;;;;5084416;28;20025;-68
2022/12/27 01:11:33;;;;;;;1142.70;814.45;;;27.60;99.90;;;;;;5083837;28;20020;-66
2022/12/27 01:14:04;;;;;;;1424.07;882.30;;;27.60;99.90;;;;;;5085481;28;20032;-66
2022/12/27 01:16:31;;;;;;;536.45;408.45;;;27.60;99.90;;;;;;5084775;28;20017;-67
2022/12/27 01:18:58;;;;;;;455.20;353.05;;;27.70;99.90;;;;;;5083264;28;20036;-64
2022/12/27 01:21:26;;;;;;;315.63;231.45;;;27.70;99.90;;;;;;5084661;28;20020;-66
2022/12/27 01:23:54;;;;;;;161.23;115.60;;;27.80;99.90;;;;;;5085055;28;20013;-66
2022/12/27 01:26:21;;;;;;;109.05;56.80;;;27.80;99.90;;;;;;5083120;28;20073;-67
2022/12/27 01:28:49;;;;;;;368.48;259.27;;;27.90;99.90;;;;;;5085580;28;20437;-66
2022/12/27 01:31:20;;;;;;;159.90;107.38;;;27.90;99.90;;;;;;5082887;28;20394;-67
2022/12/27 01:33:47;;;;;;;63.40;35.63;;;27.90;99.90;;;;;;5088371;28;20025;-66
2022/12/27 01:36:20;;;;;;;62.90;30.90;;;27.90;99.90;;;;;;5088041;28;20402;-67
2022/12/27 01:38:48;;;;;;;59.97;31.15;;;28.00;99.90;;;;;;5093260;28;20020;-67
2022/12/27 01:44:54;;;;;;;101.65;51.65;;;28.00;99.90;;;;;;5093622;28;20027;-71
2022/12/27 01:47:21;;;;;;;126.40;70.78;;;28.10;99.90;;;;;;5074422;28;20036;-70
2022/12/27 01:50:11;;;;;;;359.42;235.88;;;28.10;99.90;;;;;;5074276;28;20062;-68
2022/12/27 01:52:42;;;;;;;246.63;146.50;;;28.10;99.90;;;;;;5078422;28;20020;-69
2022/12/27 01:55:14;;;;;;;270.02;138.48;;;28.20;99.90;;;;;;5080797;28;20111;-71
2022/12/27 01:57:41;;;;;;;397.20;244.07;;;28.20;99.90;;;;;;5083392;28;20021;-70
2022/12/27 02:00:08;;;;;;;141.77;77.10;;;28.20;99.90;;;;;;5080667;28;20116;-70
2022/12/27 02:02:35;;;;;;;56.20;26.48;;;28.30;99.90;;;;;;5067893;28;20020;-69
2022/12/27 02:05:02;;;;;;;75.82;30.88;;;28.30;99.90;;;;;;5081444;28;20373;-69
2022/12/27 02:07:39;;;;;;;121.90;71.15;;;28.40;99.90;;;;;;5084544;28;20114;-68
2022/12/27 02:10:06;;;;;;;117.03;68.38;;;28.30;99.90;;;;;;5084517;28;20027;-68
2022/12/27 02:12:33;;;;;;;177.48;89.43;;;28.30;99.90;;;;;;5079993;28;20111;-69
2022/12/27 02:15:01;;;;;;;79.97;34.03;;;28.40;99.90;;;;;;5053629;28;20547;-71
2022/12/27 02:17:31;;;;;;;55.70;23.52;;;28.40;99.90;;;;;;5067955;28;20086;-68
2022/12/27 02:20:07;;;;;;;53.35;21.13;;;28.40;99.90;;;;;;5073689;28;20081;-69
2022/12/27 02:25:50;;;;;;;59.40;22.48;;;28.50;99.90;;;;;;5032094;28;20026;-67
2022/12/27 02:28:56;;;;;;;121.47;75.20;;;28.50;99.90;;;;;;5032700;28;20045;-68
2022/12/27 02:31:53;;;;;;;253.57;131.95;;;28.60;99.90;;;;;;5032734;28;20038;-69
2022/12/27 02:34:25;;;;;;;244.98;106.65;;;28.60;99.90;;;;;;4973109;28;20043;-66
2022/12/27 02:36:59;;;;;;;143.25;59.42;;;28.60;99.90;;;;;;4973369;28;20046;-68
2022/12/27 02:39:27;;;;;;;96.65;39.15;;;28.70;99.90;;;;;;4972321;28;20043;-67
2022/12/27 02:53:08;;;;;;;71.00;27.90;;;28.90;99.90;;;;;;4920236;29;20028;-71
2022/12/27 02:57:07;;;;;;;46.00;17.45;;;28.90;99.90;;;;;;4924023;29;20103;-71
2022/12/27 02:59:03;;;;;;;70.82;31.42;;;29.00;99.90;;;;;;4930007;29;20063;-71
2022/12/27 03:05:08;;;;;;;126.90;55.58;;;29.00;99.90;;;;;;4917314;29;20032;-74
2022/12/27 03:07:37;;;;;;;47.70;19.42;;;29.10;99.90;;;;;;4922701;29;20067;-74
2022/12/27 03:16:40;;;;;;;113.87;51.37;;;29.10;99.90;;;;;;4933597;29;20032;-71
2022/12/27 03:25:26;;;;;;;428.30;257.42;;;29.20;99.90;;;;;;4921016;29;20050;-71
2022/12/27 03:27:34;;;;;;;84.47;38.38;;;29.20;99.90;;;;;;4914701;29;20576;-71
2022/12/27 03:38:49;;;;;;;127.22;60.67;;;29.40;99.90;;;;;;5030924;28;20521;-71
2022/12/27 03:44:25;;;;;;;391.75;248.70;;;29.40;99.90;;;;;;5030698;28;20041;-71
2022/12/27 03:46:56;;;;;;;232.88;143.55;;;29.50;99.90;;;;;;5030578;28;20072;-71
2022/12/27 03:49:31;;;;;;;120.57;70.10;;;29.50;99.90;;;;;;5035953;28;20021;-71
2022/12/27 03:52:15;;;;;;;57.78;27.17;;;29.50;99.90;;;;;;5072615;28;20009;-71
2022/12/27 03:54:46;;;;;;;107.60;62.85;;;29.60;99.90;;;;;;5072553;28;20028;-71
2022/12/27 03:57:16;;;;;;;147.18;81.53;;;29.60;99.90;;;;;;5072457;28;20078;-72
2022/12/27 03:59:43;;;;;;;52.10;25.05;;;29.70;99.90;;;;;;5054619;28;20469;-72
2022/12/27 04:02:10;;;;;;;182.65;96.07;;;29.70;99.90;;;;;;5073187;28;20067;-71
2022/12/27 04:04:37;;;;;;;56.28;24.63;;;29.70;99.90;;;;;;5076188;28;20099;-71
2022/12/27 04:07:04;;;;;;;37.75;15.80;;;29.80;99.90;;;;;;5076273;28;20027;-70
2022/12/27 04:37:05;;;;;;;82.18;43.53;;;30.20;99.90;;;;;;4735041;30;20044;-72
2022/12/27 04:39:32;;;;;;;43.38;20.75;;;30.20;99.90;;;;;;4734859;30;20041;-71
2022/12/27 04:56:07;;;;;;;202.57;123.93;;;30.40;99.90;;;;;;4822748;29;20450;-71
2022/12/27 04:58:34;;;;;;;29.70;12.93;;;30.40;99.90;;;;;;4839544;29;20090;-72
2022/12/27 05:03:52;;;;;;;37.38;15.10;;;30.40;99.90;;;;;;4874294;29;20622;-72
2022/12/27 05:06:19;;;;;;;29.80;12.73;;;30.50;99.90;;;;;;4925627;29;20031;-72
2022/12/27 05:14:18;;;;;;;60.00;31.65;;;30.60;99.90;;;;;;5074299;28;20050;-71
2022/12/27 05:16:45;;;;;;;43.85;21.40;;;30.60;99.90;;;;;;5074957;28;20111;-72
2022/12/27 05:19:14;;;;;;;25.73;10.88;;;30.60;99.90;;;;;;5074963;28;20096;-72
2022/12/27 05:25:33;;;;;;;36.53;11.90;;;30.60;99.90;;;;;;5074787;28;20354;-72
2022/12/27 05:27:16;;;;;;;26.85;13.43;;;30.60;99.90;;;;;;5074672;28;20358;-71
2022/12/27 05:29:42;;;;;;;56.92;32.63;;;30.70;99.90;;;;;;5074693;28;20473;-72
2022/12/27 05:32:09;;;;;;;39.72;16.75;;;30.70;99.90;;;;;;5074527;28;20043;-72
2022/12/27 05:34:35;;;;;;;28.98;12.05;;;30.80;99.90;;;;;;5074636;28;20028;-72
2022/12/27 05:37:02;;;;;;;49.67;26.27;;;30.90;99.90;;;;;;5074509;28;20031;-72
2022/12/27 05:39:28;;;;;;;35.10;12.68;;;31.00;99.90;;;;;;5074374;28;20021;-72
2022/12/27 05:41:55;;;;;;;24.65;11.65;;;31.10;99.90;;;;;;5074510;28;20016;-72
2022/12/27 05:44:21;;;;;;;34.17;13.60;;;31.20;99.90;;;;;;5074693;28;20410;-73
2022/12/27 05:46:48;;;;;;;62.90;30.08;;;31.20;99.90;;;;;;5074243;28;20027;-72
2022/12/27 05:49:14;;;;;;;115.90;61.78;;;31.20;99.90;;;;;;5074398;28;20021;-72
2022/12/27 05:51:41;;;;;;;161.55;82.65;;;31.20;99.90;;;;;;5074279;28;20021;-72
2022/12/27 05:54:07;;;;;;;32.95;15.05;;;31.20;99.90;;;;;;5074109;28;20013;-71
2022/12/27 05:56:36;;;;;;;30.48;12.70;;;31.20;99.90;;;;;;5074177;28;20020;-73
2022/12/27 05:59:03;;;;;;;148.07;80.97;;;31.30;99.90;;;;;;5074088;28;20020;-72
2022/12/27 06:01:30;;;;;;;57.38;32.40;;;31.40;99.90;;;;;;5073801;28;20056;-72
2022/12/27 06:03:56;;;;;;;29.27;14.52;;;31.40;99.90;;;;;;5073917;28;20077;-72
2022/12/27 06:06:23;;;;;;;53.17;23.90;;;31.40;99.90;;;;;;5073998;28;20104;-71
2022/12/27 06:08:49;;;;;;;288.50;159.30;;;31.40;99.90;;;;;;5073798;28;20056;-71
2022/12/27 06:11:17;;;;;;;150.95;85.35;;;31.40;99.90;;;;;;5073806;28;20032;-72
2022/12/27 06:13:52;;;;;;;33.13;15.38;;;31.40;99.90;;;;;;5073703;28;20040;-72
2022/12/27 06:16:21;;;;;;;48.30;23.25;;;31.50;99.90;;;;;;5073733;28;20036;-72
2022/12/27 06:18:47;;;;;;;28.02;11.15;;;31.60;99.90;;;;;;5073866;28;20032;-72
2022/12/27 06:21:16;;;;;;;99.15;53.97;;;31.60;99.90;;;;;;5073687;28;20040;-70
2022/12/27 06:23:44;;;;;;;27.27;11.55;;;31.60;99.90;;;;;;5073359;28;20074;-71
2022/12/27 06:26:15;;;;;;;34.75;18.77;;;31.70;99.90;;;;;;5072903;28;20054;-72
2022/12/27 06:28:42;;;;;;;50.77;24.77;;;31.70;99.90;;;;;;5073585;28;20496;-71
2022/12/27 06:31:09;;;;;;;35.88;15.55;;;31.70;99.90;;;;;;5073643;28;20550;-71
2022/12/27 06:33:35;;;;;;;43.63;19.25;;;31.80;99.90;;;;;;5073630;28;20099;-72
2022/12/27 06:36:08;;;;;;;53.45;24.08;;;31.90;99.90;;;;;;5073550;28;20027;-72
2022/12/27 06:38:34;;;;;;;44.42;26.27;;;31.80;99.90;;;;;;5073473;28;20488;-71
2022/12/27 06:41:04;;;;;;;37.65;21.17;;;31.80;99.90;;;;;;5073466;28;20027;-72
2022/12/27 06:43:30;;;;;;;30.63;14.27;;;31.80;99.90;;;;;;5073232;28;20474;-71
2022/12/27 06:45:58;;;;;;;31.33;14.75;;;31.90;99.90;;;;;;5073438;28;20074;-73
2022/12/27 06:48:25;;;;;;;35.58;17.02;;;31.90;99.90;;;;;;5073357;28;20059;-71
2022/12/27 06:50:51;;;;;;;112.60;58.78;;;32.00;99.90;;;;;;5073200;28;20056;-72
2022/12/27 06:53:18;;;;;;;35.97;12.00;;;32.00;99.90;;;;;;5073499;28;20100;-72
2022/12/27 06:55:45;;;;;;;28.92;13.15;;;32.10;99.90;;;;;;5073618;28;20404;-72
2022/12/27 06:58:12;;;;;;;55.63;30.38;;;32.20;99.90;;;;;;5072972;28;20024;-72
2022/12/27 07:00:40;;;;;;;24.63;11.63;;;32.20;99.90;;;;;;5073701;28;20490;-72
2022/12/27 07:03:06;;;;;;;59.92;23.60;;;32.20;99.90;;;;;;5073494;28;20027;-72
2022/12/27 07:05:36;;;;;;;49.95;21.73;;;32.20;99.90;;;;;;5073274;28;20104;-72
2022/12/27 07:08:03;;;;;;;47.47;23.17;;;32.20;99.90;;;;;;5072806;28;20032;-70
2022/12/27 07:10:30;;;;;;;181.80;84.72;;;32.30;99.90;;;;;;5071727;28;20107;-71
2022/12/27 07:12:57;;;;;;;219.40;123.65;;;32.40;99.90;;;;;;5072817;28;20051;-71
2022/12/27 07:15:24;;;;;;;27.80;14.88;;;32.30;99.90;;;;;;5073220;28;20035;-71
2022/12/27 07:17:50;;;;;;;41.03;16.17;;;32.40;99.90;;;;;;5070256;28;20653;-72
2022/12/27 07:20:17;;;;;;;55.67;26.48;;;32.40;99.90;;;;;;5069716;28;20016;-72
2022/12/27 07:22:43;;;;;;;58.70;25.25;;;32.40;99.90;;;;;;5070675;28;20686;-72
2022/12/27 07:25:10;;;;;;;62.30;24.38;;;32.40;99.90;;;;;;5070847;28;20028;-72
2022/12/27 07:27:37;;;;;;;56.08;24.08;;;32.40;99.90;;;;;;5070806;28;20028;-72
2022/12/27 07:30:04;;;;;;;46.67;19.13;;;32.30;99.90;;;;;;5070623;28;20692;-72
2022/12/27 07:32:30;;;;;;;29.83;14.23;;;32.30;99.90;;;;;;5071475;28;20024;-72
2022/12/27 07:34:57;;;;;;;50.40;22.27;;;32.40;99.90;;;;;;5072547;28;20027;-72
2022/12/27 07:37:23;;;;;;;28.67;13.18;;;32.50;99.90;;;;;;5075251;28;20103;-72
2022/12/27 07:39:50;;;;;;;24.80;11.07;;;32.50;99.90;;;;;;5076812;28;20465;-72
2022/12/27 07:42:16;;;;;;;28.10;12.13;;;32.50;99.90;;;;;;5076814;28;20024;-72
2022/12/27 07:44:43;;;;;;;29.60;11.57;;;32.50;99.90;;;;;;5076601;28;20488;-73
2022/12/27 07:47:09;;;;;;;25.73;10.35;;;32.50;99.90;;;;;;5076709;28;20029;-72
2022/12/27 07:49:36;;;;;;;25.65;11.82;;;32.50;99.90;;;;;;5076687;28;20020;-72
2022/12/27 07:52:03;;;;;;;25.80;11.65;;;32.60;99.90;;;;;;5076477;28;20016;-71
2022/12/27 07:54:29;;;;;;;23.30;11.15;;;32.50;99.90;;;;;;5076542;28;20031;-72
2022/12/27 07:56:56;;;;;;;23.55;10.10;;;32.50;99.90;;;;;;5076469;28;20374;-70
2022/12/27 07:59:22;;;;;;;25.98;11.55;;;32.50;99.90;;;;;;5076286;28;20028;-70
2022/12/27 08:04:37;;;;;;;28.38;12.52;;;32.50;99.90;;;;;;5076406;28;20077;-71
2022/12/27 08:07:16;;;;;;;32.45;13.80;;;32.50;99.90;;;;;;5076418;28;20382;-72
2022/12/27 08:09:45;;;;;;;26.88;12.18;;;32.60;99.90;;;;;;5076226;28;20489;-72
2022/12/27 08:12:12;;;;;;;27.77;12.57;;;32.60;99.90;;;;;;5076117;28;20017;-72
2022/12/27 08:14:39;;;;;;;22.52;11.30;;;32.70;99.90;;;;;;5075976;28;20378;-72
2022/12/27 08:17:26;;;;;;;25.70;11.38;;;32.70;99.90;;;;;;5094401;28;20017;-65
2022/12/27 08:19:54;;;;;;;23.45;10.82;;;32.70;99.90;;;;;;5092023;28;20106;-68
2022/12/27 08:22:22;;;;;;;32.58;13.18;;;32.70;99.90;;;;;;5096064;28;20023;-69
2022/12/27 08:24:50;;;;;;;27.73;11.82;;;32.60;99.90;;;;;;5095982;28;20024;-71
2022/12/27 08:27:25;;;;;;;36.60;19.25;;;32.60;99.90;;;;;;5095701;28;20117;-70
2022/12/27 08:29:51;;;;;;;30.42;15.48;;;32.70;99.90;;;;;;5090636;28;20028;-70
2022/12/27 08:32:18;;;;;;;104.38;68.90;;;32.70;99.90;;;;;;5075879;28;20031;-69
2022/12/27 08:34:44;;;;;;;28.02;13.57;;;32.70;99.90;;;;;;5075643;28;20025;-70
2022/12/27 08:37:11;;;;;;;61.92;32.40;;;32.70;99.90;;;;;;5088966;28;20491;-73
2022/12/27 08:39:37;;;;;;;28.48;13.40;;;32.70;99.90;;;;;;5095553;28;20028;-71
2022/12/27 08:42:04;;;;;;;35.95;16.88;;;32.70;99.90;;;;;;5095866;28;20376;-70
2022/12/27 08:44:30;;;;;;;52.30;33.22;;;32.70;99.90;;;;;;5095433;28;20024;-69
2022/12/27 08:46:58;;;;;;;31.42;16.50;;;32.60;99.90;;;;;;5095484;28;20016;-70
2022/12/27 08:49:24;;;;;;;67.88;46.47;;;32.60;99.90;;;;;;5092478;28;20030;-68
2022/12/27 08:51:51;;;;;;;31.42;18.95;;;32.60;99.90;;;;;;5091944;28;20027;-67
2022/12/27 08:54:18;;;;;;;32.22;14.93;;;32.70;99.90;;;;;;5088964;28;20055;-69
2022/12/27 08:56:44;;;;;;;37.58;11.07;;;32.70;99.90;;;;;;5085046;28;20088;-68
2022/12/27 08:59:11;;;;;;;32.78;13.13;;;32.70;99.90;;;;;;5083524;28;20024;-69
2022/12/27 09:01:37;;;;;;;32.95;13.00;;;32.70;99.90;;;;;;5084783;28;20079;-68
2022/12/27 09:04:04;;;;;;;87.95;52.05;;;32.70;99.90;;;;;;5082146;28;20032;-70
2022/12/27 09:06:35;;;;;;;84.35;57.22;;;32.70;99.90;;;;;;5076940;28;20024;-70
2022/12/27 09:09:01;;;;;;;65.17;42.50;;;32.60;99.90;;;;;;5093172;28;20028;-70
2022/12/27 09:11:31;;;;;;;66.93;40.75;;;32.60;99.90;;;;;;5094877;28;20028;-67
2022/12/27 09:14:01;;;;;;;60.63;36.28;;;32.60;99.90;;;;;;5092239;28;20041;-66
2022/12/27 09:16:28;;;;;;;56.60;34.95;;;32.70;99.90;;;;;;5086614;28;20073;-69
2022/12/27 09:18:57;;;;;;;112.78;66.20;;;32.60;99.90;;;;;;5075652;28;20074;-69
2022/12/27 09:21:27;;;;;;;55.90;25.48;;;32.60;99.90;;;;;;5093910;28;20020;-69
2022/12/27 09:23:54;;;;;;;59.15;30.73;;;32.50;99.90;;;;;;5094524;28;20028;-70
2022/12/27 09:26:23;;;;;;;86.63;53.55;;;32.50;99.90;;;;;;5092361;28;20028;-65
2022/12/27 09:28:50;;;;;;;54.20;27.25;;;32.50;99.90;;;;;;5094167;28;20043;-68
2022/12/27 09:31:18;;;;;;;72.43;37.85;;;32.20;99.90;;;;;;5093860;28;20381;-68
2022/12/27 09:33:45;;;;;;;65.18;35.10;;;32.20;99.90;;;;;;5094840;28;20028;-70
2022/12/27 09:36:15;;;;;;;82.97;43.72;;;32.10;99.90;;;;;;5074386;28;20024;-69
2022/12/27 09:38:42;;;;;;;89.95;43.00;;;32.10;99.90;;;;;;5086469;28;20020;-69
2022/12/27 09:41:41;;;;;;;70.32;35.85;;;32.00;99.90;;;;;;5093198;28;20054;-70
2022/12/27 09:44:24;;;;;;;57.78;30.90;;;32.00;99.90;;;;;;5093596;28;20020;-68
2022/12/27 09:46:57;;;;;;;43.97;20.48;;;31.90;99.90;;;;;;5093225;28;20055;-69
2022/12/27 09:49:48;;;;;;;49.72;24.42;;;31.80;99.90;;;;;;5093152;28;20370;-69
2022/12/27 09:52:21;;;;;;;60.08;27.05;;;31.90;99.90;;;;;;5089159;28;20055;-70
2022/12/27 09:54:54;;;;;;;69.43;34.67;;;31.90;99.90;;;;;;5090701;28;20058;-69
2022/12/27 09:57:27;;;;;;;157.18;105.97;;;31.90;99.90;;;;;;5088095;28;20081;-68
2022/12/27 09:59:59;;;;;;;153.05;95.18;;;31.90;99.90;;;;;;5082992;28;20032;-68
2022/12/27 10:02:27;;;;;;;134.60;84.05;;;31.90;99.90;;;;;;5083583;28;20024;-68
2022/12/27 10:04:56;;;;;;;104.97;64.47;;;31.90;99.90;;;;;;5085210;28;20061;-69
2022/12/27 10:07:44;;;;;;;158.73;102.07;;;31.90;99.90;;;;;;5083686;28;20039;-68
2022/12/27 10:10:17;;;;;;;88.85;51.55;;;31.80;99.90;;;;;;5084176;28;20021;-68
2022/12/27 10:12:44;;;;;;;83.70;54.13;;;31.70;99.90;;;;;;5084591;28;20032;-67
2022/12/27 10:15:45;;;;;;;68.90;42.53;;;31.60;99.90;;;;;;5082048;28;20036;-67
2022/12/27 10:18:14;;;;;;;64.63;31.52;;;31.50;99.90;;;;;;5086583;28;20040;-68
2022/12/27 10:20:49;;;;;;;65.90;32.08;;;31.50;99.90;;;;;;5088463;28;20027;-67
2022/12/27 10:23:23;;;;;;;66.80;32.88;;;31.30;99.90;;;;;;5086434;28;20032;-68
2022/12/27 10:26:02;;;;;;;55.75;26.65;;;31.30;99.90;;;;;;5088510;28;20035;-67
2022/12/27 10:28:43;;;;;;;51.78;24.13;;;31.30;99.90;;;;;;5081702;28;20024;-67
2022/12/27 10:31:17;;;;;;;48.95;19.20;;;31.30;99.90;;;;;;5086053;28;20101;-67
2022/12/27 10:33:46;;;;;;;42.00;20.40;;;31.30;99.90;;;;;;5089799;28;20023;-67
2022/12/27 10:36:16;;;;;;;49.83;19.75;;;31.30;99.90;;;;;;5081722;28;20028;-67
2022/12/27 10:38:42;;;;;;;43.08;22.67;;;31.30;99.90;;;;;;5084809;28;20024;-67
2022/12/27 10:41:38;;;;;;;39.05;16.88;;;31.20;99.90;;;;;;5085591;28;20073;-68
2022/12/27 10:44:10;;;;;;;36.83;15.73;;;31.20;99.90;;;;;;5080190;28;20016;-68
2022/12/27 10:46:37;;;;;;;39.65;16.40;;;31.10;99.90;;;;;;5087603;28;20358;-67
2022/12/27 10:49:07;;;;;;;44.42;19.95;;;31.00;99.90;;;;;;5081512;28;20044;-68
2022/12/27 10:51:37;;;;;;;36.75;16.42;;;31.00;99.90;;;;;;5087673;28;20024;-68
2022/12/27 10:54:25;;;;;;;45.83;14.20;;;31.00;99.90;;;;;;5082542;28;20043;-68
2022/12/27 10:56:52;;;;;;;41.03;16.23;;;30.90;99.90;;;;;;5080536;28;20041;-68
2022/12/27 10:59:24;;;;;;;38.75;13.55;;;30.80;99.90;;;;;;5081517;28;20025;-70
2022/12/27 11:02:15;;;;;;;36.05;13.60;;;30.70;99.90;;;;;;5075860;28;20021;-67
2022/12/27 11:04:58;;;;;;;40.47;14.85;;;30.70;99.90;;;;;;5077783;28;20039;-68
2022/12/27 11:07:34;;;;;;;41.03;15.07;;;30.70;99.90;;;;;;5074681;28;20180;-68
2022/12/27 11:10:23;;;;;;;48.22;16.98;;;30.70;99.90;;;;;;5075918;28;20059;-66
2022/12/27 11:13:01;;;;;;;46.85;16.90;;;30.70;99.90;;;;;;5088725;28;20111;-67
2022/12/27 11:15:34;;;;;;;41.67;15.18;;;30.60;99.90;;;;;;5078264;28;20411;-66
2022/12/27 11:18:10;;;;;;;45.05;16.20;;;30.50;99.90;;;;;;5089901;28;20497;-68
2022/12/27 11:20:39;;;;;;;39.88;18.10;;;30.50;99.90;;;;;;5088746;28;20039;-65
2022/12/27 11:23:08;;;;;;;37.28;16.88;;;30.50;99.90;;;;;;5084866;28;20028;-67
2022/12/27 11:25:45;;;;;;;40.60;17.42;;;30.50;99.90;;;;;;5079129;28;20035;-68
2022/12/27 11:28:30;;;;;;;44.67;18.88;;;30.50;99.90;;;;;;5083874;28;20035;-67
2022/12/27 11:31:04;;;;;;;41.78;17.80;;;30.50;99.90;;;;;;5077434;28;20028;-66
2022/12/27 11:33:38;;;;;;;118.40;91.40;;;30.50;99.90;;;;;;5077733;28;20037;-65
2022/12/27 11:36:08;;;;;;;62.17;38.15;;;30.40;99.90;;;;;;5084170;28;20491;-66
2022/12/27 11:38:37;;;;;;;57.00;33.05;;;30.40;99.90;;;;;;5078903;28;20032;-67
2022/12/27 11:41:28;;;;;;;69.10;39.15;;;30.40;99.90;;;;;;5082000;28;20031;-64
2022/12/27 11:44:12;;;;;;;47.90;20.90;;;30.40;99.90;;;;;;5079631;28;20051;-67
2022/12/27 11:46:49;;;;;;;40.45;16.05;;;30.40;99.90;;;;;;5089348;28;20020;-66
2022/12/27 11:49:37;;;;;;;36.50;15.05;;;30.40;99.90;;;;;;5078559;28;20025;-67
2022/12/27 11:52:05;;;;;;;41.83;15.13;;;30.30;99.90;;;;;;5075821;28;20036;-68
2022/12/27 11:54:59;;;;;;;47.25;14.43;;;30.30;99.90;;;;;;5079911;28;20481;-68
2022/12/27 11:57:27;;;;;;;35.45;14.00;;;30.30;99.90;;;;;;5084420;28;20334;-66
2022/12/27 12:00:14;;;;;;;31.58;13.90;;;30.20;99.90;;;;;;5082709;28;20012;-68
2022/12/27 12:03:01;;;;;;;38.67;14.15;;;30.20;99.90;;;;;;5083481;28;20389;-68
2022/12/27 12:05:40;;;;;;;35.22;14.02;;;30.20;99.90;;;;;;5085298;28;20530;-69
2022/12/27 12:08:19;;;;;;;36.47;14.93;;;30.20;99.90;;;;;;5086271;28;20028;-70
2022/12/27 12:11:14;;;;;;;36.58;14.38;;;30.10;99.90;;;;;;5080454;28;20031;-68
2022/12/27 12:13:44;;;;;;;43.05;15.93;;;30.20;99.90;;;;;;5085863;28;20397;-68
2022/12/27 12:16:13;;;;;;;97.68;59.92;;;30.30;99.90;;;;;;5083629;28;20035;-68
2022/12/27 12:19:01;;;;;;;62.45;33.05;;;30.20;99.90;;;;;;5088286;28;20043;-66
2022/12/27 12:21:48;;;;;;;50.50;23.70;;;30.30;99.90;;;;;;5094907;28;20020;-67
2022/12/27 12:24:24;;;;;;;51.00;23.88;;;30.10;99.90;;;;;;5096948;28;20020;-66
2022/12/27 12:27:13;;;;;;;43.70;19.77;;;30.10;99.90;;;;;;5098656;28;20026;-66
2022/12/27 12:29:43;;;;;;;45.08;17.38;;;30.00;99.90;;;;;;5093394;28;20028;-66
2022/12/27 12:32:34;;;;;;;64.22;35.03;;;30.10;99.90;;;;;;5098459;28;20043;-68
2022/12/27 12:35:39;;;;;;;57.15;32.72;;;30.00;99.90;;;;;;5098724;28;20345;-67
2022/12/27 12:38:31;;;;;;;56.78;29.30;;;30.00;99.90;;;;;;4996647;28;20034;-68
2022/12/27 12:41:04;;;;;;;47.15;22.52;;;29.90;99.90;;;;;;4997104;28;20135;-67
2022/12/27 12:43:36;;;;;;;40.03;17.73;;;30.00;99.90;;;;;;4996494;28;20105;-66
2022/12/27 12:46:07;;;;;;;32.80;13.30;;;29.90;99.90;;;;;;4977894;28;20023;-67
2022/12/27 12:48:41;;;;;;;66.13;27.63;;;29.90;99.90;;;;;;4986938;28;20388;-69
2022/12/27 12:51:28;;;;;;;126.65;63.22;;;29.90;99.90;;;;;;4996829;28;20039;-69
2022/12/27 12:53:54;;;;;;;192.80;102.70;;;29.90;99.90;;;;;;4986986;28;20409;-67
2022/12/27 12:56:23;;;;;;;91.55;47.85;;;29.90;99.90;;;;;;4996587;28;20439;-66
2022/12/27 12:58:59;;;;;;;66.25;34.33;;;29.90;99.90;;;;;;4996575;28;20041;-66
2022/12/27 13:02:05;;;;;;;89.93;53.28;;;29.90;99.90;;;;;;4996387;28;20391;-67
2022/12/27 13:04:42;;;;;;;91.72;41.15;;;29.80;99.90;;;;;;4945728;29;20045;-68
2022/12/27 13:07:40;;;;;;;71.82;28.90;;;29.90;99.90;;;;;;4957748;29;20031;-68
2022/12/27 13:10:27;;;;;;;80.40;33.92;;;29.90;99.90;;;;;;4955845;29;20171;-69
2022/12/27 13:13:08;;;;;;;49.05;19.85;;;29.80;99.90;;;;;;4956815;29;20051;-68
2022/12/27 13:15:45;;;;;;;74.90;34.60;;;29.80;99.90;;;;;;4985888;28;20089;-67
2022/12/27 13:18:34;;;;;;;74.40;35.80;;;29.80;99.90;;;;;;4994924;28;20034;-67
2022/12/27 13:21:13;;;;;;;53.28;23.80;;;29.70;99.90;;;;;;4990432;28;20093;-66
2022/12/27 13:23:58;;;;;;;79.40;42.00;;;29.60;99.90;;;;;;4984287;28;20034;-69
2022/12/27 13:26:36;;;;;;;85.40;46.22;;;29.70;99.90;;;;;;4995138;28;20077;-68
2022/12/27 13:29:24;;;;;;;72.10;38.40;;;29.70;99.90;;;;;;4994884;28;20498;-68
2022/12/27 13:31:56;;;;;;;72.82;38.15;;;29.70;99.90;;;;;;4993566;28;20030;-67
2022/12/27 13:34:32;;;;;;;80.22;40.88;;;29.60;99.90;;;;;;4992599;28;20042;-67
2022/12/27 13:37:06;;;;;;;117.35;68.65;;;29.50;99.90;;;;;;4990736;28;20058;-65
2022/12/27 13:39:53;;;;;;;68.43;30.48;;;29.50;99.90;;;;;;4993536;28;20038;-66
2022/12/27 13:42:21;;;;;;;47.58;22.17;;;29.50;99.90;;;;;;4993394;28;20035;-66
2022/12/27 13:45:08;;;;;;;61.40;26.08;;;29.40;99.90;;;;;;4992880;28;20113;-67
2022/12/27 13:47:42;;;;;;;56.92;25.52;;;29.40;99.90;;;;;;4992770;28;20476;-66
2022/12/27 13:50:35;;;;;;;63.83;28.80;;;29.30;99.90;;;;;;4992718;28;20066;-65
2022/12/27 13:53:21;;;;;;;68.60;30.75;;;29.20;99.90;;;;;;4953908;29;20032;-69
2022/12/27 13:56:09;;;;;;;70.72;29.60;;;29.20;99.90;;;;;;4952599;29;20057;-69
2022/12/27 13:58:45;;;;;;;41.58;18.42;;;29.10;99.90;;;;;;4953782;29;20046;-69
2022/12/27 14:01:52;;;;;;;98.60;27.58;;;29.10;99.90;;;;;;4953967;29;20019;-68
2022/12/27 14:04:29;;;;;;;58.83;17.42;;;29.10;99.90;;;;;;4953044;29;20054;-69
2022/12/27 14:07:12;;;;;;;34.85;15.63;;;29.10;99.90;;;;;;4976331;28;20034;-69
2022/12/27 14:09:57;;;;;;;40.05;15.50;;;29.10;99.90;;;;;;5029953;28;20029;-69
2022/12/27 14:13:01;;;;;;;42.25;15.88;;;29.20;99.90;;;;;;5030878;28;20037;-69
2022/12/27 14:15:48;;;;;;;39.67;15.02;;;29.20;99.90;;;;;;5031231;28;20094;-69
2022/12/27 14:18:16;;;;;;;40.08;13.65;;;29.10;99.90;;;;;;4952768;29;20043;-69
2022/12/27 14:21:11;;;;;;;40.55;13.45;;;29.10;99.90;;;;;;4953575;29;20051;-68
2022/12/27 14:23:57;;;;;;;34.53;11.73;;;29.00;99.90;;;;;;4896087;29;20037;-68
2022/12/27 14:26:43;;;;;;;34.83;11.68;;;29.00;99.90;;;;;;4896582;29;20037;-68
2022/12/27 14:29:12;;;;;;;42.13;12.50;;;29.00;99.90;;;;;;4912868;29;20044;-68
2022/12/27 14:32:09;;;;;;;23.65;9.93;;;29.00;99.90;;;;;;4915383;29;20060;-68